Time;durP1;ratioP1;P1;durP2;ratioP2;P2;SDS_P1;SDS_P2;PMS_P1;PMS_P2;Temp;Humidity;BMP_temperature;BMP_pressure;BME280_temperature;BME280_humidity;BME280_pressure;Samples;Min_cycle;Max_cycle;Signal;HPM_P1;HPM_P2
2022/08/13 00:00:32;;;;;;;7.35;3.35;;;23.50;99.90;;;;;;5015096;28;20258;-73
2022/08/13 00:02:59;;;;;;;8.20;3.58;;;23.60;99.90;;;;;;5018416;28;20203;-72
2022/08/13 00:05:26;;;;;;;4.90;3.35;;;23.60;99.90;;;;;;5033428;28;20346;-72
2022/08/13 00:07:52;;;;;;;5.93;3.30;;;23.50;99.90;;;;;;5034237;28;20633;-70
2022/08/13 00:10:25;;;;;;;7.90;3.22;;;23.50;99.90;;;;;;5029804;28;20227;-69
2022/08/13 00:13:03;;;;;;;5.60;3.20;;;23.50;99.90;;;;;;5032727;28;20196;-68
2022/08/13 00:15:36;;;;;;;7.93;3.15;;;23.50;99.90;;;;;;5019658;28;20200;-68
2022/08/13 00:18:07;;;;;;;4.05;3.03;;;23.50;99.90;;;;;;5027559;28;20192;-68
2022/08/13 00:20:43;;;;;;;6.65;3.40;;;23.40;99.90;;;;;;5033564;28;20326;-69
2022/08/13 00:23:11;;;;;;;5.35;3.42;;;23.40;99.90;;;;;;5036381;28;20633;-70
2022/08/13 00:25:36;;;;;;;6.30;3.13;;;23.30;99.90;;;;;;5030039;28;20488;-70
2022/08/13 00:28:04;;;;;;;5.90;3.63;;;23.30;99.90;;;;;;5029374;28;20188;-70
2022/08/13 00:30:33;;;;;;;7.55;3.60;;;23.40;99.90;;;;;;5035465;28;20204;-69
2022/08/13 00:33:12;;;;;;;8.93;3.67;;;23.50;99.90;;;;;;5013176;28;20204;-69
2022/08/13 00:35:41;;;;;;;6.03;3.03;;;23.60;99.90;;;;;;5026916;28;20205;-70
2022/08/13 00:38:23;;;;;;;7.28;3.38;;;23.60;99.90;;;;;;5009544;28;20211;-67
2022/08/13 00:40:54;;;;;;;6.43;3.38;;;23.60;99.90;;;;;;5014888;28;20182;-68
2022/08/13 00:43:20;;;;;;;9.10;3.47;;;23.40;99.90;;;;;;5030442;28;20216;-67
2022/08/13 00:45:46;;;;;;;5.55;3.22;;;23.30;99.90;;;;;;5016711;28;20191;-67
2022/08/13 00:50:58;;;;;;;6.32;3.38;;;23.20;99.90;;;;;;5027218;28;20206;-67
2022/08/13 00:53:24;;;;;;;4.80;3.40;;;23.20;99.90;;;;;;5025508;28;20216;-67
2022/08/13 00:55:53;;;;;;;4.93;2.97;;;23.10;99.90;;;;;;5015419;28;20714;-67
2022/08/13 00:58:21;;;;;;;6.53;3.65;;;23.10;99.90;;;;;;5031562;28;20633;-70
2022/08/13 01:00:52;;;;;;;6.70;3.10;;;23.00;99.90;;;;;;5029438;28;20287;-69
2022/08/13 01:03:19;;;;;;;6.30;3.03;;;22.90;99.90;;;;;;5009840;28;20212;-70
2022/08/13 01:05:46;;;;;;;5.40;3.08;;;23.00;99.90;;;;;;5021378;28;20568;-67
2022/08/13 01:08:16;;;;;;;5.32;3.10;;;23.10;99.90;;;;;;5028877;28;20204;-69
2022/08/13 01:10:43;;;;;;;6.65;3.28;;;23.20;99.90;;;;;;5025205;28;20168;-70
2022/08/13 01:13:11;;;;;;;4.63;2.80;;;23.20;99.90;;;;;;5033706;28;20621;-70
2022/08/13 01:15:38;;;;;;;5.18;3.10;;;23.30;99.90;;;;;;5032534;28;20216;-70
2022/08/13 01:18:05;;;;;;;4.13;3.38;;;23.30;99.90;;;;;;5025730;28;20208;-69
2022/08/13 01:20:32;;;;;;;6.80;3.10;;;23.30;99.90;;;;;;5022483;28;20201;-69
2022/08/13 01:22:58;;;;;;;4.93;3.28;;;23.30;99.90;;;;;;5036775;28;20207;-70
2022/08/13 01:25:25;;;;;;;7.47;3.35;;;23.30;99.90;;;;;;5028873;28;20634;-70
2022/08/13 01:27:53;;;;;;;6.13;2.88;;;23.30;99.90;;;;;;5004351;28;20197;-70
2022/08/13 01:30:20;;;;;;;7.18;3.75;;;23.20;99.90;;;;;;5035804;28;20664;-70
2022/08/13 01:32:47;;;;;;;8.20;3.40;;;23.00;99.90;;;;;;5028421;28;20290;-70
2022/08/13 01:35:19;;;;;;;8.05;3.20;;;23.00;99.90;;;;;;5025457;28;20207;-70
2022/08/13 01:37:53;;;;;;;7.97;3.65;;;23.00;99.90;;;;;;5026516;28;20160;-70
2022/08/13 01:40:19;;;;;;;7.47;3.50;;;22.90;99.90;;;;;;5030914;28;20180;-70
2022/08/13 01:42:46;;;;;;;7.13;3.40;;;22.90;99.90;;;;;;5030123;28;20220;-70
2022/08/13 01:45:13;;;;;;;5.53;3.15;;;22.80;99.90;;;;;;5025461;22;20712;-70
2022/08/13 01:50:29;;;;;;;5.18;3.00;;;22.70;99.90;;;;;;4999579;28;20653;-70
2022/08/13 01:53:01;;;;;;;7.55;3.42;;;22.70;99.90;;;;;;4997443;28;20205;-71
2022/08/13 01:55:42;;;;;;;6.63;3.60;;;22.70;99.90;;;;;;4995081;28;20213;-71
2022/08/13 01:58:08;;;;;;;4.47;3.25;;;22.70;99.90;;;;;;4999821;28;20198;-71
2022/08/13 02:00:36;;;;;;;8.32;3.45;;;22.70;99.90;;;;;;4994505;28;20210;-71
2022/08/13 02:03:04;;;;;;;4.30;3.35;;;22.70;99.90;;;;;;4999283;28;20689;-71
2022/08/13 02:05:31;;;;;;;9.25;3.08;;;22.70;99.90;;;;;;5002026;28;20216;-71
2022/08/13 02:07:58;;;;;;;6.75;3.15;;;22.60;99.90;;;;;;4999014;28;20300;-71
2022/08/13 02:10:24;;;;;;;6.93;3.55;;;22.60;99.90;;;;;;4990300;28;20175;-70
2022/08/13 02:12:50;;;;;;;6.93;3.78;;;22.60;99.90;;;;;;4997918;28;20203;-70
2022/08/13 02:15:16;;;;;;;8.15;3.20;;;22.60;99.90;;;;;;4998143;28;20217;-70
2022/08/13 02:17:42;;;;;;;8.57;3.50;;;22.50;99.90;;;;;;4995568;28;20605;-69
2022/08/13 02:20:17;;;;;;;8.82;3.38;;;22.50;99.90;;;;;;4988613;28;20205;-71
2022/08/13 02:22:45;;;;;;;6.65;3.90;;;22.50;99.90;;;;;;5004615;28;20172;-69
2022/08/13 02:25:12;;;;;;;6.13;3.22;;;22.60;99.90;;;;;;4996283;28;20201;-71
2022/08/13 02:27:40;;;;;;;6.68;3.05;;;22.50;99.90;;;;;;4991038;28;20222;-70
2022/08/13 02:30:09;;;;;;;7.10;3.58;;;22.40;99.90;;;;;;4998631;28;20288;-70
2022/08/13 02:32:38;;;;;;;7.68;3.88;;;22.50;99.90;;;;;;5010795;28;20209;-71
2022/08/13 02:35:06;;;;;;;5.30;3.17;;;22.50;99.90;;;;;;5001545;28;20205;-71
2022/08/13 02:37:32;;;;;;;9.38;3.88;;;22.50;99.90;;;;;;4994599;28;20174;-71
2022/08/13 02:39:59;;;;;;;5.22;3.38;;;22.50;99.90;;;;;;5006059;28;20612;-71
2022/08/13 02:42:28;;;;;;;5.78;3.83;;;22.60;99.90;;;;;;4998709;28;20209;-72
2022/08/13 02:44:54;;;;;;;6.20;3.58;;;22.50;99.90;;;;;;5000669;28;20665;-72
2022/08/13 02:47:21;;;;;;;7.00;3.70;;;22.40;99.90;;;;;;5005664;28;20209;-71
2022/08/13 02:49:51;;;;;;;5.00;3.38;;;22.30;99.90;;;;;;4999191;28;20173;-71
2022/08/13 02:52:21;;;;;;;5.40;3.47;;;22.40;99.90;;;;;;4999278;28;20175;-71
2022/08/13 02:54:48;;;;;;;5.40;3.08;;;22.50;99.90;;;;;;4993534;28;20218;-71
2022/08/13 02:57:14;;;;;;;5.15;3.65;;;22.40;99.90;;;;;;5003721;28;20197;-71
2022/08/13 02:59:41;;;;;;;5.18;3.20;;;22.30;99.90;;;;;;4987742;28;20202;-70
2022/08/13 03:02:08;;;;;;;7.75;3.42;;;22.30;99.90;;;;;;4997796;28;20285;-71
2022/08/13 03:04:34;;;;;;;4.25;3.15;;;22.30;99.90;;;;;;5005975;28;20764;-71
2022/08/13 03:07:01;;;;;;;7.40;3.50;;;22.20;99.90;;;;;;5003713;28;20170;-70
2022/08/13 03:09:27;;;;;;;7.25;3.30;;;22.20;99.90;;;;;;4995410;28;20206;-71
2022/08/13 03:11:53;;;;;;;8.75;3.55;;;22.20;99.90;;;;;;4996572;28;20287;-71
2022/08/13 03:14:20;;;;;;;5.68;3.45;;;22.20;99.90;;;;;;5002773;28;20233;-71
2022/08/13 03:16:46;;;;;;;5.10;3.45;;;22.10;99.90;;;;;;4996166;28;20179;-71
2022/08/13 03:19:12;;;;;;;4.60;3.55;;;22.10;99.90;;;;;;4997056;28;20166;-71
2022/08/13 03:21:41;;;;;;;7.35;3.70;;;22.10;99.90;;;;;;4988219;28;20241;-71
2022/08/13 03:24:09;;;;;;;5.00;3.20;;;22.20;99.90;;;;;;5001203;28;20683;-72
2022/08/13 03:26:36;;;;;;;7.00;3.80;;;22.10;99.90;;;;;;4997047;28;20203;-71
2022/08/13 03:29:03;;;;;;;3.92;3.45;;;22.10;99.90;;;;;;4996505;28;20205;-71
2022/08/13 03:31:29;;;;;;;6.03;3.53;;;22.10;99.90;;;;;;4987368;28;20166;-71
2022/08/13 03:34:01;;;;;;;8.82;4.22;;;22.10;99.90;;;;;;5000389;28;20617;-72
2022/08/13 03:36:27;;;;;;;3.85;2.75;;;22.10;99.90;;;;;;4992398;28;20214;-71
2022/08/13 03:38:53;;;;;;;7.60;3.90;;;22.10;99.90;;;;;;5004957;28;20201;-71
2022/08/13 03:41:18;;;;;;;5.90;3.50;;;22.10;99.90;;;;;;5003354;28;20232;-72
2022/08/13 03:43:47;;;;;;;6.45;3.75;;;22.10;99.90;;;;;;4988745;28;20192;-71
2022/08/13 03:46:18;;;;;;;6.63;3.60;;;22.10;99.90;;;;;;4999758;28;20178;-71
2022/08/13 03:48:45;;;;;;;5.25;3.72;;;22.10;99.90;;;;;;4991720;28;20240;-72
2022/08/13 03:51:12;;;;;;;7.03;3.35;;;22.10;99.90;;;;;;4998393;28;20201;-71
2022/08/13 03:53:39;;;;;;;4.85;3.75;;;22.20;99.90;;;;;;4998618;28;20233;-73
2022/08/13 03:56:06;;;;;;;4.07;3.58;;;22.20;99.90;;;;;;5004460;28;20208;-72
2022/08/13 03:58:32;;;;;;;7.07;3.60;;;22.30;99.90;;;;;;5004407;28;20178;-71
2022/08/13 04:00:59;;;;;;;4.78;3.72;;;22.40;99.90;;;;;;5001321;28;20264;-70
2022/08/13 04:03:29;;;;;;;5.18;3.80;;;22.50;99.90;;;;;;4994379;28;20225;-72
2022/08/13 04:06:04;;;;;;;9.93;3.90;;;22.50;99.90;;;;;;5005638;28;20197;-70
2022/08/13 04:08:35;;;;;;;5.32;3.50;;;22.50;99.90;;;;;;5001984;28;20198;-71
2022/08/13 04:11:03;;;;;;;5.25;3.67;;;22.60;99.90;;;;;;4993865;28;20209;-72
2022/08/13 04:13:29;;;;;;;4.95;3.88;;;22.60;99.90;;;;;;5004399;28;20261;-70
2022/08/13 04:15:55;;;;;;;5.40;3.97;;;22.70;99.90;;;;;;5004265;28;20216;-70
2022/08/13 04:18:21;;;;;;;6.40;4.13;;;22.70;99.90;;;;;;4993981;28;20580;-70
2022/08/13 04:20:52;;;;;;;6.00;3.70;;;22.70;99.90;;;;;;4986327;28;20568;-74
2022/08/13 04:23:19;;;;;;;4.15;3.70;;;22.70;99.90;;;;;;4985749;28;20251;-72
2022/08/13 04:25:46;;;;;;;7.00;3.88;;;22.70;99.90;;;;;;4998586;28;20185;-70
2022/08/13 04:28:13;;;;;;;6.68;3.70;;;22.70;99.90;;;;;;4990373;28;20185;-70
2022/08/13 04:30:41;;;;;;;6.05;4.20;;;22.80;99.90;;;;;;4999927;28;20233;-71
2022/08/13 04:33:14;;;;;;;7.50;3.60;;;22.80;99.90;;;;;;4996798;28;20201;-72
2022/08/13 04:35:41;;;;;;;5.47;3.90;;;22.80;99.90;;;;;;4994671;28;20627;-70
2022/08/13 04:38:08;;;;;;;7.10;4.28;;;22.80;99.90;;;;;;4995281;28;20213;-70
2022/08/13 04:40:35;;;;;;;6.88;3.90;;;22.90;99.90;;;;;;4988114;28;20170;-71
2022/08/13 04:43:01;;;;;;;5.95;4.03;;;22.90;99.90;;;;;;4978371;28;20163;-71
2022/08/13 04:45:28;;;;;;;6.88;4.00;;;22.80;99.90;;;;;;4981721;28;20210;-70
2022/08/13 04:47:58;;;;;;;8.43;4.53;;;22.90;99.90;;;;;;4999135;28;20205;-70
2022/08/13 04:50:24;;;;;;;5.10;4.32;;;22.80;99.90;;;;;;5000294;28;20830;-71
2022/08/13 04:52:50;;;;;;;7.45;4.45;;;22.80;99.90;;;;;;4999032;28;20209;-69
2022/08/13 04:55:16;;;;;;;7.93;5.28;;;22.80;99.90;;;;;;4999633;28;20220;-70
2022/08/13 04:57:42;;;;;;;6.88;4.43;;;22.80;99.90;;;;;;5003856;28;20638;-70
2022/08/13 05:00:09;;;;;;;9.45;4.25;;;22.70;99.90;;;;;;4996181;28;20210;-69
2022/08/13 05:02:39;;;;;;;10.93;4.40;;;22.90;99.90;;;;;;4991626;28;20699;-70
2022/08/13 05:05:06;;;;;;;7.22;4.00;;;22.80;99.90;;;;;;5000194;28;20217;-70
2022/08/13 05:07:31;;;;;;;8.70;4.05;;;23.00;99.90;;;;;;5000793;28;20537;-70
2022/08/13 05:09:57;;;;;;;4.88;3.90;;;23.00;99.90;;;;;;4994949;28;20217;-71
2022/08/13 05:12:23;;;;;;;4.82;4.10;;;23.10;99.90;;;;;;4996077;28;20212;-69
2022/08/13 05:14:49;;;;;;;6.30;3.63;;;23.20;99.90;;;;;;5005744;28;20232;-68
2022/08/13 05:17:14;;;;;;;8.45;4.45;;;23.30;99.90;;;;;;4998218;28;20201;-69
2022/08/13 05:19:40;;;;;;;6.53;4.13;;;23.30;99.90;;;;;;4998516;28;20962;-69
2022/08/13 05:22:07;;;;;;;5.60;4.05;;;23.30;99.90;;;;;;5000837;28;20205;-70
2022/08/13 05:24:33;;;;;;;6.15;3.53;;;23.30;99.90;;;;;;4986785;28;20260;-70
2022/08/13 05:26:59;;;;;;;7.28;4.15;;;23.40;99.90;;;;;;4990144;28;20209;-69
2022/08/13 05:29:25;;;;;;;6.68;3.95;;;23.40;99.90;;;;;;5001209;28;20202;-71
2022/08/13 05:31:53;;;;;;;6.38;4.50;;;23.50;99.90;;;;;;5003683;28;20184;-70
2022/08/13 05:34:19;;;;;;;6.95;4.22;;;23.70;99.90;;;;;;4995700;28;20198;-70
2022/08/13 05:36:46;;;;;;;7.20;3.92;;;23.80;99.90;;;;;;4998018;28;20216;-71
2022/08/13 05:39:13;;;;;;;8.63;4.03;;;23.90;99.90;;;;;;5000010;28;20208;-71
2022/08/13 05:41:39;;;;;;;12.45;4.60;;;24.00;99.90;;;;;;4998501;28;20214;-71
2022/08/13 05:44:05;;;;;;;11.40;4.63;;;24.10;99.90;;;;;;4992085;28;20297;-69
2022/08/13 05:46:30;;;;;;;6.55;4.25;;;24.30;99.90;;;;;;4994591;28;20204;-70
2022/08/13 05:48:56;;;;;;;6.53;3.80;;;24.60;99.90;;;;;;4997617;28;20204;-70
2022/08/13 05:51:28;;;;;;;4.95;3.88;;;25.30;99.90;;;;;;4993975;28;20707;-71
2022/08/13 05:53:58;;;;;;;5.97;4.22;;;26.10;99.90;;;;;;4987734;28;20205;-71
2022/08/13 05:56:24;;;;;;;6.15;3.42;;;27.60;99.90;;;;;;4999364;28;20293;-72
2022/08/13 05:58:51;;;;;;;6.35;4.30;;;28.60;99.90;;;;;;4999877;28;20184;-71
2022/08/13 06:04:03;;;;;;;6.30;3.85;;;28.20;99.90;;;;;;4989551;28;20581;-71
2022/08/13 06:06:29;;;;;;;6.53;3.92;;;28.50;99.90;;;;;;4998350;28;20254;-72
2022/08/13 06:08:58;;;;;;;5.95;4.28;;;28.90;99.90;;;;;;4995515;28;20205;-71
2022/08/13 06:11:25;;;;;;;8.75;4.88;;;28.60;99.90;;;;;;4991011;28;20205;-71
2022/08/13 06:13:51;;;;;;;4.93;3.92;;;28.30;99.90;;;;;;5004725;28;20259;-71
2022/08/13 06:16:18;;;;;;;8.63;4.60;;;27.80;99.90;;;;;;4996474;28;20181;-71
2022/08/13 06:18:46;;;;;;;8.23;4.22;;;27.00;99.90;;;;;;4992332;28;20204;-71
2022/08/13 06:21:13;;;;;;;11.20;4.57;;;26.70;99.90;;;;;;4982556;28;20213;-71
2022/08/13 06:23:40;;;;;;;7.50;4.60;;;26.50;99.90;;;;;;4986605;28;20218;-71
2022/08/13 06:26:12;;;;;;;12.23;5.47;;;26.40;99.90;;;;;;4994363;28;20252;-71
2022/08/13 06:28:39;;;;;;;5.78;4.13;;;25.80;99.90;;;;;;4991868;28;20166;-71
2022/08/13 06:31:09;;;;;;;6.70;4.65;;;25.60;99.90;;;;;;4986301;28;20687;-70
2022/08/13 06:33:37;;;;;;;5.03;4.40;;;25.50;99.90;;;;;;4996986;28;20214;-70
2022/08/13 06:36:08;;;;;;;7.03;4.45;;;25.30;99.90;;;;;;4991462;28;20213;-71
2022/08/13 06:38:36;;;;;;;4.72;3.58;;;25.20;99.90;;;;;;4984235;28;20678;-70
2022/08/13 06:41:06;;;;;;;7.00;4.10;;;25.30;99.90;;;;;;5000370;28;20642;-70
2022/08/13 06:43:39;;;;;;;6.22;4.55;;;25.40;99.90;;;;;;4994434;28;20201;-70
2022/08/13 06:46:05;;;;;;;6.13;4.80;;;25.70;99.90;;;;;;4987964;28;20209;-70
2022/08/13 06:48:33;;;;;;;5.13;4.28;;;25.90;99.90;;;;;;4996165;28;20221;-70
2022/08/13 06:50:59;;;;;;;7.00;4.45;;;26.10;99.90;;;;;;4977187;28;20202;-70
2022/08/13 06:53:25;;;;;;;6.93;4.20;;;26.30;99.90;;;;;;4995999;28;20249;-70
2022/08/13 06:55:52;;;;;;;10.15;4.53;;;26.30;99.90;;;;;;5004877;28;20200;-71
2022/08/13 06:58:27;;;;;;;7.15;4.68;;;26.40;99.90;;;;;;5000772;28;20185;-70
2022/08/13 07:00:55;;;;;;;5.90;4.65;;;26.40;99.90;;;;;;4999043;28;20216;-69
2022/08/13 07:03:25;;;;;;;8.60;4.47;;;26.50;99.90;;;;;;4978555;28;20305;-70
2022/08/13 07:05:51;;;;;;;5.38;4.20;;;26.60;99.90;;;;;;4984585;28;20204;-70
2022/08/13 07:08:17;;;;;;;8.20;5.75;;;26.60;99.90;;;;;;4995516;28;20209;-71
2022/08/13 07:10:46;;;;;;;5.05;4.55;;;26.30;99.90;;;;;;4999012;28;20185;-69
2022/08/13 07:13:12;;;;;;;7.95;4.82;;;26.50;99.90;;;;;;5000598;28;20249;-70
2022/08/13 07:15:38;;;;;;;7.07;4.63;;;26.90;99.90;;;;;;4998438;28;20713;-70
2022/08/13 07:18:07;;;;;;;6.30;4.20;;;27.30;99.90;;;;;;4997090;28;20577;-69
2022/08/13 07:20:36;;;;;;;7.95;4.72;;;27.50;99.90;;;;;;5001232;28;20206;-71
2022/08/13 07:23:01;;;;;;;10.63;5.15;;;27.50;99.90;;;;;;4989503;28;20205;-71
2022/08/13 07:25:30;;;;;;;10.40;4.88;;;27.40;99.90;;;;;;4999905;28;20289;-70
2022/08/13 07:27:58;;;;;;;8.65;4.88;;;27.40;99.90;;;;;;4980583;28;20205;-70
2022/08/13 07:30:25;;;;;;;6.95;4.50;;;27.30;99.90;;;;;;4988989;28;20271;-70
2022/08/13 07:32:52;;;;;;;5.85;4.90;;;27.30;99.90;;;;;;5004338;28;20268;-70
2022/08/13 07:35:18;;;;;;;10.52;4.70;;;27.40;99.90;;;;;;4994573;28;20237;-71
2022/08/13 07:37:45;;;;;;;5.10;3.97;;;27.50;99.90;;;;;;4986591;28;20180;-70
2022/08/13 07:40:11;;;;;;;5.53;4.32;;;27.80;99.90;;;;;;5004580;28;20162;-70
2022/08/13 07:42:40;;;;;;;4.90;4.22;;;28.30;99.90;;;;;;4986337;28;20204;-71
2022/08/13 07:45:10;;;;;;;5.93;4.10;;;29.00;99.90;;;;;;5008441;23;20676;-71
2022/08/13 07:47:37;;;;;;;10.52;4.60;;;29.80;99.90;;;;;;5027825;28;20207;-69
2022/08/13 07:50:05;;;;;;;4.65;3.90;;;30.10;99.90;;;;;;5060649;28;20245;-69
2022/08/13 07:52:32;;;;;;;6.68;3.95;;;30.20;99.90;;;;;;5048718;28;20310;-69
2022/08/13 07:55:01;;;;;;;7.60;4.25;;;30.80;99.90;;;;;;5050814;28;20202;-70
2022/08/13 07:57:30;;;;;;;5.95;4.22;;;30.80;99.90;;;;;;5037864;28;20696;-70
2022/08/13 07:59:56;;;;;;;5.95;4.03;;;31.00;99.90;;;;;;5054896;28;20219;-70
2022/08/13 08:02:25;;;;;;;6.53;3.90;;;32.20;99.90;;;;;;5049833;28;20203;-70
2022/08/13 08:04:52;;;;;;;6.55;3.83;;;32.30;98.90;;;;;;5036184;28;20688;-69
2022/08/13 08:07:18;;;;;;;7.25;4.05;;;31.60;98.70;;;;;;5053476;28;20773;-69
2022/08/13 08:09:44;;;;;;;7.53;3.90;;;30.70;99.90;;;;;;5050921;28;20237;-68
2022/08/13 08:14:54;;;;;;;4.60;4.00;;;29.20;99.90;;;;;;5052967;28;20226;-70
2022/08/13 08:17:21;;;;;;;7.38;4.10;;;28.50;99.90;;;;;;5046985;28;20669;-70
2022/08/13 08:19:50;;;;;;;13.55;11.13;;;28.10;99.90;;;;;;5050936;28;20170;-71
2022/08/13 08:22:17;;;;;;;6.15;4.80;;;28.10;99.90;;;;;;5046471;28;20180;-70
2022/08/13 08:24:48;;;;;;;7.40;4.57;;;27.80;99.90;;;;;;5054219;28;20298;-70
2022/08/13 08:27:16;;;;;;;6.72;5.07;;;27.60;99.90;;;;;;5046100;28;20250;-69
2022/08/13 08:29:44;;;;;;;7.38;5.07;;;27.40;99.90;;;;;;5053852;28;20616;-69
2022/08/13 08:32:18;;;;;;;11.32;6.10;;;27.10;99.90;;;;;;5055315;28;20261;-75
2022/08/13 08:34:47;;;;;;;8.90;4.63;;;27.10;99.90;;;;;;5051955;28;20195;-70
2022/08/13 08:42:51;;;;;;;6.80;4.32;;;27.00;99.90;;;;;;5047328;28;20865;-70
2022/08/13 08:45:19;;;;;;;5.78;4.63;;;27.00;99.90;;;;;;5043418;28;20216;-70
2022/08/13 08:47:45;;;;;;;6.80;4.00;;;27.10;99.90;;;;;;5044899;28;20248;-68
2022/08/13 08:50:11;;;;;;;6.15;4.32;;;27.40;99.90;;;;;;5052936;28;20203;-70
2022/08/13 08:55:24;;;;;;;7.03;4.97;;;27.70;99.90;;;;;;5051515;28;20199;-69
2022/08/13 08:57:52;;;;;;;12.77;7.57;;;27.80;99.90;;;;;;5057108;28;20201;-70
2022/08/13 09:00:19;;;;;;;11.50;6.32;;;27.90;99.90;;;;;;5047873;28;20192;-69
2022/08/13 09:02:48;;;;;;;9.25;4.97;;;28.00;99.90;;;;;;5044439;28;20242;-69
2022/08/13 09:05:17;;;;;;;5.22;4.13;;;28.10;99.90;;;;;;5052765;28;20262;-69
2022/08/13 09:07:46;;;;;;;5.90;4.35;;;28.30;99.90;;;;;;5053958;28;20237;-70
2022/08/13 09:10:13;;;;;;;9.68;4.57;;;28.60;99.90;;;;;;5046371;28;20164;-70
2022/08/13 09:12:44;;;;;;;8.65;5.50;;;29.00;99.90;;;;;;5058765;28;20307;-70
2022/08/13 09:15:11;;;;;;;6.45;5.40;;;29.30;99.90;;;;;;5061316;28;20237;-70
2022/08/13 09:17:38;;;;;;;8.68;5.65;;;29.40;99.90;;;;;;5048412;28;20280;-70
2022/08/13 09:20:06;;;;;;;15.70;7.53;;;29.60;99.90;;;;;;5042780;28;20207;-69
2022/08/13 09:22:32;;;;;;;7.15;5.25;;;29.90;99.90;;;;;;5056385;28;20628;-70
2022/08/13 09:24:58;;;;;;;7.88;5.53;;;29.90;99.90;;;;;;5054199;28;20222;-70
2022/08/13 09:27:26;;;;;;;11.18;6.47;;;29.80;99.90;;;;;;5044310;28;20206;-70
2022/08/13 09:29:52;;;;;;;6.15;5.00;;;30.00;99.90;;;;;;5060263;28;20195;-70
2022/08/13 09:32:18;;;;;;;6.05;5.05;;;30.00;99.90;;;;;;5034306;28;20755;-71
2022/08/13 09:34:44;;;;;;;8.82;7.93;;;30.10;99.90;;;;;;5055747;28;20198;-69
2022/08/13 09:37:11;;;;;;;10.43;6.90;;;29.80;99.90;;;;;;5042472;28;20262;-69
2022/08/13 09:39:50;;;;;;;7.97;5.85;;;29.60;99.90;;;;;;5056367;28;20696;-70
2022/08/13 09:42:24;;;;;;;8.43;6.57;;;29.50;99.90;;;;;;5049110;28;20203;-69
2022/08/13 09:44:59;;;;;;;7.05;6.30;;;29.30;99.90;;;;;;5045126;28;20298;-69
2022/08/13 09:47:25;;;;;;;6.18;5.57;;;29.20;99.90;;;;;;5024657;28;20204;-69
2022/08/13 09:49:51;;;;;;;8.73;7.15;;;29.00;99.90;;;;;;5054437;28;20166;-69
2022/08/13 09:52:17;;;;;;;7.00;6.13;;;28.80;99.90;;;;;;5039595;28;20213;-70
2022/08/13 09:54:43;;;;;;;7.53;6.60;;;28.50;99.90;;;;;;5053037;28;20242;-70
2022/08/13 09:57:09;;;;;;;7.82;6.20;;;28.20;99.90;;;;;;5057303;28;20196;-69
2022/08/13 09:59:35;;;;;;;7.50;5.90;;;28.10;99.90;;;;;;5051180;28;20211;-71
2022/08/13 10:02:09;;;;;;;8.25;7.20;;;28.00;99.90;;;;;;5048170;28;20208;-70
2022/08/13 10:04:38;;;;;;;7.00;6.22;;;28.00;99.90;;;;;;5056343;28;20211;-69
2022/08/13 10:07:06;;;;;;;8.35;7.28;;;28.20;99.90;;;;;;5058000;28;20727;-70
2022/08/13 10:09:33;;;;;;;7.40;5.82;;;28.40;99.90;;;;;;5049692;28;20206;-70
2022/08/13 10:12:00;;;;;;;6.68;6.05;;;28.50;99.90;;;;;;5029052;28;20203;-70
2022/08/13 10:14:26;;;;;;;7.97;6.55;;;28.70;99.90;;;;;;5053982;28;20219;-71
2022/08/13 10:16:53;;;;;;;6.95;6.20;;;28.60;99.90;;;;;;5050062;28;20238;-70
2022/08/13 10:19:20;;;;;;;6.10;5.45;;;28.40;99.90;;;;;;5048177;28;20263;-70
2022/08/13 10:21:45;;;;;;;12.93;8.13;;;28.40;99.90;;;;;;5052404;28;20246;-70
2022/08/13 10:24:11;;;;;;;13.02;6.60;;;28.20;99.90;;;;;;5051863;28;20223;-70
2022/08/13 10:26:40;;;;;;;7.68;6.47;;;28.10;99.90;;;;;;5047337;28;20216;-70
2022/08/13 10:29:08;;;;;;;9.05;6.20;;;28.10;99.90;;;;;;5022991;28;20199;-70
2022/08/13 10:31:37;;;;;;;6.60;5.38;;;27.80;99.90;;;;;;5056319;28;20172;-70
2022/08/13 10:34:03;;;;;;;7.68;5.95;;;27.80;99.90;;;;;;5071259;28;20171;-70
2022/08/13 10:36:30;;;;;;;9.93;6.25;;;27.60;99.90;;;;;;5056720;28;20246;-70
2022/08/13 10:38:56;;;;;;;6.47;5.05;;;27.30;99.90;;;;;;5055463;28;20531;-70
2022/08/13 10:41:22;;;;;;;7.38;6.22;;;27.10;99.90;;;;;;5051331;28;20674;-71
2022/08/13 10:43:49;;;;;;;6.97;5.80;;;26.80;99.90;;;;;;5048550;28;20229;-70
2022/08/13 10:46:20;;;;;;;7.68;5.93;;;26.50;99.90;;;;;;5038572;28;20204;-70
2022/08/13 10:48:49;;;;;;;9.35;7.20;;;26.70;99.90;;;;;;5048404;28;20210;-70
2022/08/13 10:51:15;;;;;;;10.73;7.15;;;26.70;99.90;;;;;;5050002;28;20198;-70
2022/08/13 10:53:56;;;;;;;8.38;6.18;;;26.70;99.90;;;;;;5053163;28;20207;-69
2022/08/13 10:56:22;;;;;;;8.50;5.90;;;26.70;99.90;;;;;;5056437;28;20211;-69
2022/08/13 10:58:49;;;;;;;8.77;5.15;;;26.60;99.90;;;;;;5062726;28;20171;-67
2022/08/13 11:01:15;;;;;;;9.15;5.38;;;26.40;99.90;;;;;;5049104;28;20315;-66
2022/08/13 11:03:44;;;;;;;6.65;5.97;;;26.40;99.90;;;;;;5030794;28;20225;-67
2022/08/13 11:06:10;;;;;;;5.82;5.30;;;26.40;99.90;;;;;;5039581;28;20281;-67
2022/08/13 11:08:39;;;;;;;5.88;4.65;;;26.40;99.90;;;;;;5049803;28;20580;-67
2022/08/13 11:11:05;;;;;;;6.40;5.28;;;26.40;99.90;;;;;;5046425;28;20203;-67
2022/08/13 11:13:31;;;;;;;6.53;4.68;;;26.40;99.90;;;;;;5059010;28;20250;-67
2022/08/13 11:15:58;;;;;;;5.65;4.97;;;26.50;99.90;;;;;;5056120;28;20204;-67
2022/08/13 11:18:26;;;;;;;6.55;5.88;;;26.50;99.90;;;;;;5044917;28;20220;-67
2022/08/13 11:21:07;;;;;;;11.48;7.90;;;26.60;99.90;;;;;;5049791;28;20257;-67
2022/08/13 11:23:34;;;;;;;8.10;4.88;;;26.60;99.90;;;;;;5057250;28;20872;-67
2022/08/13 11:26:00;;;;;;;5.32;4.82;;;26.50;99.90;;;;;;5052343;28;20904;-67
2022/08/13 11:28:25;;;;;;;7.95;5.45;;;26.60;99.90;;;;;;5044846;28;20161;-68
2022/08/13 11:30:53;;;;;;;7.10;5.35;;;26.70;99.90;;;;;;5055447;28;20191;-68
2022/08/13 11:33:21;;;;;;;8.07;5.30;;;26.60;99.90;;;;;;5035152;28;20203;-67
2022/08/13 11:35:46;;;;;;;6.15;5.30;;;26.60;99.90;;;;;;5034808;28;20208;-68
2022/08/13 11:38:15;;;;;;;6.10;4.97;;;26.50;99.90;;;;;;5031916;28;20686;-68
2022/08/13 11:40:49;;;;;;;5.45;4.82;;;26.50;99.90;;;;;;5058139;28;20216;-68
2022/08/13 11:43:14;;;;;;;7.15;5.40;;;26.50;99.90;;;;;;5050342;28;20172;-68
2022/08/13 11:45:40;;;;;;;6.93;5.30;;;26.50;99.90;;;;;;5046085;28;21526;-68
2022/08/13 11:48:06;;;;;;;12.95;9.40;;;26.50;99.90;;;;;;5045727;28;20617;-67
2022/08/13 11:50:32;;;;;;;12.25;8.90;;;26.50;99.90;;;;;;5055121;28;20208;-68
2022/08/13 11:52:58;;;;;;;11.93;9.77;;;26.50;99.90;;;;;;5049083;28;20230;-67
2022/08/13 11:55:23;;;;;;;7.95;5.55;;;26.40;99.90;;;;;;5053139;28;20191;-69
2022/08/13 11:57:59;;;;;;;12.15;8.02;;;26.30;99.90;;;;;;5057921;28;20207;-67
2022/08/13 12:00:26;;;;;;;9.13;6.70;;;26.40;99.90;;;;;;5049381;28;20200;-69
2022/08/13 12:02:52;;;;;;;11.70;6.93;;;26.40;99.90;;;;;;5045757;28;20203;-69
2022/08/13 12:05:18;;;;;;;8.27;6.95;;;26.30;99.90;;;;;;5052749;28;20261;-67
2022/08/13 12:07:43;;;;;;;7.60;6.63;;;26.30;99.90;;;;;;5054554;28;20639;-68
2022/08/13 12:10:09;;;;;;;8.05;5.85;;;26.40;99.90;;;;;;5031650;28;20183;-66
2022/08/13 12:12:35;;;;;;;8.75;6.47;;;26.40;99.90;;;;;;5054249;28;20672;-68
2022/08/13 12:15:00;;;;;;;7.22;5.97;;;26.50;99.90;;;;;;5056717;28;20211;-68
2022/08/13 12:17:27;;;;;;;10.30;5.60;;;26.70;99.90;;;;;;5046806;28;20687;-68
2022/08/13 12:19:53;;;;;;;6.53;5.18;;;26.70;99.90;;;;;;5051135;28;20656;-66
2022/08/13 12:22:18;;;;;;;6.78;6.18;;;26.70;99.90;;;;;;5054545;28;20213;-66
2022/08/13 12:24:44;;;;;;;6.90;5.40;;;27.00;99.90;;;;;;5057289;28;20207;-66
2022/08/13 12:27:09;;;;;;;7.18;5.00;;;27.00;99.90;;;;;;5047428;28;20227;-66
2022/08/13 12:29:35;;;;;;;7.38;5.35;;;26.90;99.90;;;;;;5044730;28;20262;-66
2022/08/13 12:32:00;;;;;;;6.97;4.78;;;26.90;99.90;;;;;;5056724;28;20195;-67
2022/08/13 12:34:26;;;;;;;7.60;5.22;;;26.90;99.90;;;;;;5032739;28;20184;-66
2022/08/13 12:36:52;;;;;;;9.38;5.70;;;27.00;99.90;;;;;;5046238;28;20213;-66
2022/08/13 12:39:17;;;;;;;7.60;5.43;;;27.00;99.90;;;;;;5053514;28;20199;-68
2022/08/13 12:41:43;;;;;;;7.65;6.70;;;27.00;99.90;;;;;;5054865;28;20218;-66
2022/08/13 12:44:12;;;;;;;4.95;4.45;;;27.00;99.90;;;;;;5047533;28;20230;-67
2022/08/13 12:46:38;;;;;;;5.55;5.05;;;27.00;99.90;;;;;;5042105;28;20259;-65
2022/08/13 12:49:05;;;;;;;7.88;5.68;;;27.10;99.90;;;;;;5051255;28;20175;-66
2022/08/13 12:51:30;;;;;;;7.90;5.50;;;27.20;99.90;;;;;;5050079;28;20228;-67
2022/08/13 12:53:56;;;;;;;6.78;5.63;;;27.20;99.90;;;;;;5050106;28;20234;-66
2022/08/13 12:56:21;;;;;;;5.65;4.90;;;27.10;99.90;;;;;;5053924;28;20246;-67
2022/08/13 12:58:47;;;;;;;9.35;5.55;;;27.20;99.90;;;;;;5054843;28;20171;-67
2022/08/13 13:01:12;;;;;;;5.95;5.38;;;27.30;99.90;;;;;;5047151;28;20182;-66
2022/08/13 13:03:38;;;;;;;6.88;5.53;;;27.50;99.90;;;;;;5045633;28;20322;-67
2022/08/13 13:06:04;;;;;;;6.43;5.25;;;27.70;99.90;;;;;;5056326;28;20199;-67